Sligo Airport - TAF
(Terminal Area Forecast)

Issued at 05:06 UTC on Thu. 29-Jun-17

--- METARS(SA) ---

METAR EISG(SLIGO) 290500Z AUTO 35009KT 9999 BKN046 OVC060 13/12

Q1003 =

--- TAFS() ---

TAF EISG(SLIGO) 290200Z 2903/2912 35010KT 9999 FEW018 BKN030 PROB30

TEMPO 2903/2905 5000 -RA BR BKN008 BECMG 2904/2906 36015KT =

--- SIGMETS(WS) ---

IE - No VALID SIGMETS/Warnings FOR THIS AREA

--- SIGMETS Volcanic(WV) ---

IE - No VALID SIGMETS/Warnings FOR THIS AREA

--- SIGMETS(WS) ---

UK - No VALID SIGMETS/Warnings FOR THIS AREA

Sligo Airport - METARs

Latest METARs for Sligo and Donegal Airports - updated every 30 mins